SAEZ/EZE METAR and TAF weather

Enter ICAO airport designator
Station Type Date Time Source
SAEZ METAR 2024/06/16 09:00 UTC NOAA

SAEZ 160900Z 20003KT 4000 BR NSC 09/08 Q1020 NOSIG


Station Type Date Time Source
SAEZ Decoded METAR 2024/06/16 09:00 UTC NOAA

Ezeiza Aerodrome, Argentina (SAEZ) 34-49S 058-32W 20M
Jun 16, 2024 - 05:00 AM EDT / 2024.06.16 0900 UTC
Wind: from the SSW (200 degrees) at 3 MPH (3 KT):0
Visibility: 2 mile(s):0
Weather: mist
Temperature: 48 F (9 C)
Dew Point: 46 F (8 C)
Relative Humidity: 93%
Pressure (altimeter): 30.12 in. Hg (1020 hPa)
ob: SAEZ 160900Z 20003KT 4000 BR NSC 09/08 Q1020 NOSIG
cycle: 9

Station Type Date Time Source
SAEZ TAF 2024/06/16 06:33 UTC NOAA